Latest Observation

114 Stations

10 Minute Data
as of 9/3/26 12:45 AM PDT
Station Date Time Temp (°F) RH (%) Dew Pt (°F) Wind Spd (mph) Wind Dir (°) Wind Gust (mph) Wind Gst Dir (°) Latest Rain (In) Soil Moist (%) Soil Temp (°F) Daily Rain (In) Daily Min Temp (°F) Daily Max Temp (°F) Daily Max Wind (mph)
Hobart Mills 9/3/26 0040 49.8   4.0 64   4 38.0   5.5 3.2   1.8 SW | 234 8.8   2.5 WSW | 238 0.00 7.6   0.0 65.1   2.1 0.00 44.6   0.9 61.9   4.7 21.4   4.5
Prosser Dam 9/3/26 0040 50.6   4.4 60   6 37.5   6.6 3.0   0.5 SW | 220 5.7   0.7 SW | 217 0.00 5.3   0.0 62.1   2.0 0.00 41.5   2.0 61.8   7.2 29.6   1.6
West Incline Village 9/3/26 0040 44.3   1.0 71   15 35.4   6.8 2.8   1.4 WSW | 238 11.0   2.7 S | 183 0.00 11.7   0.1 57.6   0.9 0.00 40.4   1.8 54.0   7.3 26.8   5.6
Incline Village (Fairview Blvd) 9/3/26 0040 46.1   0.3 68   16 36.0   6.9 0.9   2.5 NW | 304 4.8   7.8 NW | 315 0.00 7.6   0.0 70.8   1.1 0.00 42.9   2.4 57.6   6.4 21.2   3.5
Incline Village (Diamond Peak) 9/3/26 0040 44.0   0.4 73   17 35.8   7.2 3.7   0.1 WNW | 298 6.6   0.4 NW | 308 0.00 2.5   0.1 60.0   1.4 0.00 40.2   2.4 53.7   6.8 15.5   2.0
Incline Village (Mill Creek) 5/30/36 1610 74.5 37 46.5 0.5 SW | 236 1.7 SSW | 213 0.00 0.0 0.0 0.00 74.4 74.5 1.7
Incline Village (Lakeshore Blvd) 9/3/26 0040 51.8   0.3 71   16 42.7   6.3 2.4   5.4 WSW | 249 7.7   7.3 SSW | 209 0.00 21.4   2.2 59.3   1.1 0.00 47.5   0.9 57.2   6.5 18.5   2.9
Glenbrook 9/3/26 0040 53.4   1.7 57   11 38.4   7.0 9.8   3.4 WSW | 237 19.8   3.0 WSW | 254 0.00 43.1   0.1 58.7   0.5 0.00 48.7   1.9 59.1   5.7 26.2   3.0
Zephyr Cove 9/3/26 0040 49.8   3.2 54   5 34.1   5.6 0.4   0.4 E | 90 3.0   3.0 SSE | 168 0.00 2.8   0.0 64.5   0.6 0.00 45.2   1.3 61.3   7.2 14.7   2.0
Kingsbury Grade 9/3/26 0040 45.7   0.6 65   17 34.4   6.9 1.1   1.4 WNW | 282 4.1   3.1 NW | 324 0.00 2.2   0.8 66.3   3.2 0.00 41.3   3.3 60.6   5.9 20.5   5.1
South Daggett Pass (Ridge) 9/3/26 0040 42.7   0.1 67   15 32.6   6.2 2.6   1.9 W | 280 11.7   7.0 W | 280 0.00 2.2   0.0 63.0   1.2 0.00 38.5   2.8 55.4   7.5 28.3   7.6
Palomino Valley 9/3/26 0040 55.0   0.7 40   4 31.3   2.1 4.0   0.5 NNE | 18 6.0   5.2 WSW | 245 0.00 6.6   0.1 75.8   3.8 0.00 49.3   4.0 69.2   10.1 33.4   9.2
East Cold Springs 9/3/26 0040 53.3   3.1 50   1 35.1   3.6 9.6   3.8 WSW | 242 15.9   5.5 WSW | 256 0.00 1.6   0.1 70.4   2.5 0.00 46.6   3.1 66.0   6.2 30.9   3.0
Peavine 9/3/26 0040 53.7 38 28.4 38.1 WSW | 246 50.0 WSW | 245 0.00 4.3 68.8 0.00 51.0 62.8 51.7
West Verdi Peak 9/3/26 0140 48.3   3.1 62   2 35.8   3.9 6.6   0.4 SSE | 157 14.3   2.4 SE | 136 0.00 6.5   0.0 69.0   1.6 0.00 48.0   3.1 48.5   2.8 14.3   2.1
West Verdi 9/3/26 0040 55.4   2.9 53   7 38.3   6.4 8.1   0.8 SW | 226 16.0   0.9 SSW | 200 0.00 6.2   0.1 79.7   2.6 0.00 50.2   2.0 65.5   7.9 37.6   2.2
South Verdi 9/3/26 0040 53.2   1.5 53   13 36.7   8.2 20.3   1.0 SSW | 207 25.0   1.2 SSW | 198 0.00 10.4   0.2 70.5   3.0 0.00 49.1   2.2 63.9   6.2 44.7   5.7
Northwest Reno 9/3/26 0040 55.2   0.5 51   19 37.3   11.2 29.9   20.4 WSW | 241 41.9   24.0 WSW | 239 0.00 24.8   0.5 75.6   3.5 0.00 52.0   1.4 65.7   7.6 47.9   8.6
North Lawton 8/28/26 1620 63.8   17.1 74   52 55.4   16.5 1.5   11.6 ESE | 121 5.1   19.0 SE | 124 0.00 - 78.2   0.0 0.05 59.2   7.5 71.9   13.3 20.4   4.6
West Reno (Mogul) 9/3/26 0040 56.2   1.6 44   10 34.7   8.1 19.7   9.0 SW | 233 30.6   9.4 SW | 234 0.00 19.5   0.1 78.1   1.3 0.00 51.1   0.5 64.8   9.0 33.3   2.2
Caughlin (Hunter Lake Trail) 9/3/26 0040 56.9   2.8 35   0 29.4   2.3 21.4   18.9 WSW | 244 33.0   25.1 WSW | 240 0.00 16.3   0.3 72.6   2.9 0.00 50.0   1.7 65.6   8.4 39.6   0.9
ArrowCreek 9/3/26 0040 57.1   3.9 37   6 31.1   0.0 3.0   0.1 ESE | 120 7.6   0.9 E | 85 0.00 - 32.0   0.0 0.00 50.5   1.5 66.6   8.0 40.2   8.3
Tracy 9/3/26 0040 61.3   0.7 34   0 32.4   0.8 9.7   1.5 NW | 313 17.8   4.5 NW | 322 0.00 15.8   0.2 77.6   3.7 0.00 56.2   3.6 72.0   8.1 29.3   7.1
Virginia Highlands 9/3/26 0040 52.4   1.0 49   2 33.8   1.8 5.2   0.8 SSW | 196 12.0   1.5 S | 172 0.00 8.0   0.1 73.5   1.3 0.00 48.7   0.9 60.1   10.3 24.6   1.4
Virginia City 9/3/26 0040 51.0   1.3 45   14 30.3   7.6 12.1   4.4 S | 182 16.0   14.4 S | 190 0.00 4.7   0.2 72.1   3.7 0.00 47.3   3.5 60.2   10.0 30.4   0.0
Six Mile Canyon 9/3/26 0040 61.1   0.5 31   5 29.9   4.4 13.6   5.2 WNW | 282 19.6   3.9 NW | 307 0.00 12.2   0.4 74.6   5.0 0.00 54.3   5.6 70.1   10.6 25.8   3.0
Mt Rose Highway 9/3/26 0040 47.1   2.3 44   1 26.3   1.4 3.5   8.3 SSE | 168 10.1   18.8 S | 188 0.00 7.4   0.0 61.4   1.1 0.00 43.0   1.6 56.7   7.3 35.2   5.8
Pleasant Valley 9/3/26 0040 59.0   2.0 39   5 34.1   5.1 18.9   3.5 WSW | 240 26.0   1.7 SW | 236 0.00 2.4   0.0 75.9   4.2 0.00 54.6   3.2 66.3   8.9 34.8   0.5
New Washoe City 9/3/26 0040 55.7   0.7 52   15 38.4   8.0 3.7   7.6 SW | 228 8.4   9.9 WSW | 244 0.00 3.5   0.1 72.6   1.5 0.00 52.3   2.4 65.9   7.5 31.7   1.0
Franktown Creek 9/3/26 0040 57.3   1.0 50   14 39.0   9.2 4.1   0.1 S | 180 10.6   0.5 S | 190 0.00 7.0   0.0 71.7   1.5 0.00 53.7   1.9 65.7   7.8 29.3   2.1
Musgrove Creek 9/3/26 0040 50.5   2.0 53   11 34.1   3.6 1.7   0.9 SSW | 199 5.1   5.2 SE | 138 0.00 10.3   0.1 60.4   0.5 0.00 49.6   2.2 63.4   7.4 21.6   0.7
East Carson 11/23/24 0110 28.6   28.4 - - 4.7   11.0 SW | 220 14.7   10.1 SW | 219 0.02 - 50.9   0.1 0.02 -25.9   79.1 42.9   14.6 16.0   10.7
Kings Canyon 9/3/26 0040 55.6   0.5 39   9 30.9   6.4 1.4   2.5 SW | 229 4.1   7.6 SE | 127 0.00 4.2   0.0 69.6   1.2 0.00 51.1   4.8 65.7   7.8 28.1   3.6
Carson City (Voltaire Canyon) 9/3/26 0040 59.6   2.1 28   2 26.7   0.2 13.0   2.1 SSW | 209 23.7   1.7 S | 186 0.00 2.8   0.0 78.2   1.0 0.00 53.6   3.6 68.1   7.8 32.8   0.4
Jacks Valley 9/3/26 0040 56.5   1.3 36   2 29.8   2.8 4.3   2.2 WSW | 247 7.6   7.3 WSW | 255 0.00 4.6   0.0 76.4   2.5 0.00 52.3   2.5 67.3   7.4 36.0   5.0
Genoa 9/3/26 0040 59.0   2.1 40   5 34.8   5.2 1.5   1.2 W | 276 7.7   3.6 WNW | 298 0.00 2.3   0.1 66.0   2.7 0.00 53.0   3.1 71.2   5.3 21.7   1.7
South Genoa (Walleys Hot Springs) 9/3/26 0040 61.4   1.7 31   1 30.3   2.4 10.6   0.0 WSW | 239 16.0   11.1 SW | 217 0.00 4.9   0.4 74.3   0.6 0.00 54.2   2.4 70.9   6.8 31.7   1.7
SW Gardnerville (HWY 88) 9/3/26 0040 53.2   5.1 48   20 34.0   9.1 0.1   11.3 NNE | 27 1.4   14.3 NE | 34 0.00 2.8   0.1 69.2   1.8 0.00 51.7   5.8 70.3   5.5 30.3   1.6
Sheridan 9/3/26 0040 56.8   2.7 37   5 30.6   5.7 4.5   0.3 W | 269 6.6   4.2 WNW | 297 0.00 1.1   0.0 73.1   2.5 0.00 50.8   2.4 71.3   4.9 27.1   4.6
Ruhenstroth 9/3/26 0040 58.1   0.1 39   14 33.3   10.8 9.4   0.9 S | 184 14.8   3.4 SSE | 168 0.00 6.8   0.1 73.4   3.4 0.00 54.4   3.0 69.1   6.2 31.3   0.1
Double Spring 9/3/26 0040 47.6   1.9 55   16 32.2   6.4 2.0   1.3 NW | 317 4.0   4.5 WNW | 302 0.00 25.3   0.4 70.6   3.3 0.00 38.9   9.8 65.0   6.5 30.9   7.2
North Topaz Lake 9/3/26 0040 57.4   0.1 31   8 27.1   6.7 5.3   3.4 WSW | 243 10.1   5.0 W | 262 0.00 7.5   0.1 69.0   2.6 0.00 52.8   4.0 69.1   6.5 28.0   3.0
Wild Oat Mountain 9/3/26 0040 55.2   1.8 31   10 25.1   8.2 5.9   8.9 SW | 215 11.3   12.0 SSW | 194 0.00 5.7   0.1 70.7   2.2 0.00 49.8   7.0 67.6   5.3 33.9   5.0
Smith Valley 9/3/26 0040 63.8   0.6 21   5 23.0   5.8 10.8   3.7 SW | 226 22.1   8.9 SW | 227 0.00 2.8   0.0 78.0   1.9 0.00 53.7   6.0 72.8   8.2 30.7   5.3
Pine Grove Mountain 9/3/26 0040 48.0   0.2 33   13 20.1   11.0 4.5   1.4 SSW | 198 8.6   3.6 WSW | 250 0.00 6.8   0.4 64.4   3.8 0.00 43.4   4.5 61.1   7.7 28.7   2.7
Paradise Hill 9/3/26 0040 59.6   6.6 42   24 36.4   15.5 9.0   2.3 WSW | 250 10.4   5.0 WSW | 246 0.00 10.0   0.3 72.2   5.1 0.00 54.1   1.2 67.6   12.9 39.9   12.9
Winnemucca 9/3/26 0040 56.8   5.6 39   22 32.2   15.2 2.2   10.9 SSW | 201 3.6   17.4 SSW | 209 0.00 5.7   0.1 74.3   3.1 0.00 51.9   10.2 69.2   12.5 33.3   9.7
NE Elko 9/3/26 0040 57.2   10.9 29   12 25.1   4.4 2.5   6.8 ENE | 67 3.4   11.9 ENE | 66 0.00 5.7   0.1 72.5   1.8 0.00 52.1   5.9 71.1   11.3 27.0   8.7
North Elko 9/3/26 0040 57.2   7.4 30   8 26.2   1.6 6.4   0.4 W | 276 8.7   0.1 W | 272 0.00 24.7   0.2 72.0   2.3 0.00 50.5   7.0 69.0   11.9 36.9   5.2
South Elko 9/3/26 0040 59.0   5.5 35   16 31.4   10.3 5.2   1.9 SSE | 158 6.6   2.5 SSE | 157 0.00 13.6   0.1 68.4   3.4 0.00 50.9   4.8 - 24.5   10.7
Lamoille 9/3/26 0040 54.0   14.8 35   19 26.9   6.9 6.9   10.8 SE | 137 8.2   18.2 SE | 137 0.00 6.3   0.2 67.4   1.5 0.00 51.6   0.1 70.0   6.7 28.0   6.6
Reid Gardner Sub 9/3/26 0040 80.1   4.4 13   0 24.4   4.1 4.9   2.7 SW | 220 7.0   6.8 SW | 214 0.00 24.2   2.2 88.7   2.0 0.00 73.9   2.0 97.9   1.4 32.8   2.2
Corn Creek 9/3/26 0040 73.0   6.7 12   2 17.3   8.8 3.5   10.0 SSE | 151 7.5   12.7 SW | 225 0.00 3.1   0.1 90.6   2.0 0.00 68.7   3.2 94.2   2.4 25.5   14.5
Lucky Strike 9/3/26 0040 68.5   1.4 9   6 7.1   13.2 1.8   9.8 W | 261 4.7   13.3 WNW | 302 0.00 3.2   0.1 84.4   0.3 0.00 61.6   3.2 82.0   2.4 28.1   5.7
Lower Angel Peak 9/3/26 0040 62.7   2.2 15   4 13.9   7.8 1.1   7.5 ENE | 77 3.4   12.2 ESE | 120 0.00 3.2   0.0 74.7   0.9 0.00 53.7   6.3 77.5   2.7 22.5   6.0
Angel Peak 9/3/26 0040 55.8   2.1 18   6 12.5   5.0 9.4   18.0 S | 171 17.0   25.3 SSE | 161 0.00 2.5   0.1 67.0   1.6 0.00 50.9   0.4 66.7   5.3 45.2   7.9
Upper Kyle Canyon 9/3/26 0040 60.4   2.7 14   7 11.0   7.0 12.3   4.0 W | 266 28.9   0.8 W | 267 0.00 7.8   0.0 76.0   0.6 0.00 56.3   0.5 68.1   0.3 36.5   11.3
Mt Charleston 9/3/26 0040 60.2   1.9 17   4 15.4   2.9 11.2   7.6 WSW | 257 22.6   12.0 W | 280 0.00 13.3   0.0 67.6   1.6 0.00 56.0   1.5 67.8   0.2 31.9   1.6
Mid Kyle Canyon 9/3/26 0040 61.0   3.7 17   1 15.4   4.6 3.9   3.7 NE | 43 7.5   10.9 ENE | 61 0.00 5.8   0.1 75.4   1.1 0.00 57.1   2.5 75.6   2.0 33.3   0.2
Blue Diamond 9/3/26 0040 77.8   0.3 18   4 30.5   6.8 9.5   3.5 W | 267 16.4   5.3 W | 260 0.00 1.2   0.1 87.4   1.6 0.00 67.0   4.5 87.8   0.6 33.4   3.5
Artesian Sub 9/3/26 0040 84.3   1.7 14   2 29.2   3.1 6.3   3.8 SSE | 158 12.4   6.6 SSE | 165 0.00 11.7   0.0 93.1   0.5 0.00 77.6   0.8 97.7   2.0 24.0   1.5
North Henderson 9/3/26 0040 85.8   0.4 14   2 30.9   2.6 12.9   7.7 SSW | 201 20.4   10.9 SW | 219 0.00 10.5   0.1 96.7   1.0 0.00 80.4   0.6 97.8   1.6 26.4   2.7
Sandy Valley 9/3/26 0040 75.6   0.6 24   6 36.3   7.3 7.2   4.0 WSW | 246 9.7   3.2 WSW | 248 0.00 7.9   0.3 89.9   2.0 0.00 69.8   3.5 89.4   1.5 24.1   0.6
Searchlight 9/3/26 0040 73.6   2.3 21   0 31.3   1.9 3.1   1.4 WNW | 298 5.5   0.6 WNW | 288 0.00 5.9   0.2 87.9   1.7 0.00 65.1   2.8 89.9   0.0 27.2   3.4
Laughlin 9/3/26 0040 89.8   1.4 12   23 30.5   29.6 4.7   1.9 WSW | 246 7.7   3.5 W | 280 0.00 4.5   0.0 100.8   0.7 0.00 80.5   5.5 103.3   1.1 23.8   6.7
31Mission Hills 9/3/26 0040 79.8   2.8 12   1 23.7   4.0 5.9   1.3 SSW | 197 16.6   5.0 WSW | 237 0.00 6.9   0.1 88.6   1.9 0.00 74.8   2.0 94.6   1.3 33.2   10.7
32 Enterprise Sierra Cliffs 9/3/26 0040 77.1   0.6 17   6 28.3   9.2 12.3   0.0 SSW | 203 21.5   4.0 SSW | 211 0.00 1.4   0.1 85.1   2.4 0.00 72.3   4.0 89.1   1.2 36.4   6.3
29 Calico Basin 9/3/26 0040 75.1   0.2 15   2 24.3   2.5 11.7   8.2 WSW | 241 17.5   11.5 W | 260 0.00 2.4   0.1 85.9   1.0 0.00 69.3   2.8 85.7   0.7 43.2   3.9
28 Indian Springs 9/3/26 0040 73.1   4.5 9   1 11.4   6.2 1.8   12.6 NW | 304 4.5   19.2 WNW | 297 0.00 4.6   0.1 88.1   1.4 0.00 62.7   6.7 90.8   1.0 34.4   2.6
30 Jean 9/3/26 0040 73.3   1.8 20   4 29.2   4.3 3.4   2.5 SSW | 193 6.1   4.2 S | 175 0.00 5.1   0.1 85.5   2.8 0.00 67.4   3.0 89.4   1.6 36.3   8.8
VC Highlands NW 9/3/26 0040 50.4   1.5 50   1 32.7   1.7 3.3   1.9 SSW | 204 5.3   1.2 S | 179 0.00 1.5   0.1 62.5   4.5 0.00 47.0   1.2 57.6   12.3 32.4   12.9
Glenbrook-Spooner Summit 9/3/26 0040 47.9   1.3 49   11 29.6   7.4 10.5   3.2 WSW | 255 21.0   5.2 W | 262 0.00 7.9   0.0 67.6   0.9 0.00 41.4   4.1 56.2   6.6 30.8   1.7
Hobo Hot Springs 9/3/26 0040 60.4   1.5 29   2 28.3   3.2 5.5   8.5 WSW | 250 14.2   11.2 SW | 228 0.00 1.0   0.1 69.3   3.4 0.00 48.6   5.5 70.2   7.5 34.2   1.0
Jack Valley Ranch 2 9/3/26 0040 57.1   0.4 34   8 29.1   6.7 2.2   3.1 NE | 35 4.7   10.8 NNW | 335 0.00 2.2   0.0 75.0   2.6 0.00 51.6   4.5 67.1   8.3 35.3   0.2
Genoa North 2 9/3/26 0040 57.9   1.0 38   7 32.2   6.2 5.9   0.7 SW | 217 14.3   1.2 S | 181 0.00 0.9   0.1 76.0   3.0 0.00 53.3   3.1 69.5   7.5 28.8   8.3
Mottsville 2 9/3/26 0040 58.3   0.6 29   5 26.0   3.9 3.9   2.0 WSW | 238 5.8   7.5 WSW | 255 0.00 1.3   0.0 73.7   2.0 0.00 52.8   4.2 70.3   6.7 36.9   14.7
Kingsbury Village 3 9/3/26 0040 41.8   0.1 66   17 31.3   7.2 1.9   0.6 NNW | 327 6.7   0.2 NW | 322 0.00 3.3   0.1 63.5   0.7 0.00 39.1   2.0 54.7   8.7 19.4   1.1
Kingsbury-Benjamin Dr 2 9/3/26 0040 43.9   0.1 63   16 32.2   7.4 1.8   1.4 W | 262 5.5   5.1 WSW | 254 0.00 3.1   0.2 68.9   2.9 0.00 40.5   2.2 57.4   7.4 23.2   4.6
Smith Valley-Wellington 9/3/26 0040 59.8   0.6 28   12 26.9   12.3 7.9   1.8 SSW | 206 13.3   3.0 SW | 218 0.00 3.6   0.1 81.0   2.3 0.00 54.8   4.7 72.9   7.7 27.7   1.6
Sheridan South 2 9/3/26 0040 59.0   1.2 31   4 28.2   4.4 7.0   2.7 SSW | 205 11.9   2.2 S | 183 0.00 0.5   0.1 73.8   2.5 0.00 48.5   7.8 70.4   4.8 31.4   2.5
Silver Springs 9/3/26 0040 61.0   1.9 33   11 32.0   7.7 13.9   18.7 W | 266 19.1   23.2 WSW | 246 0.00 5.0   0.2 78.2   4.9 0.00 54.1   8.6 74.5   8.0 39.4   6.2
Fernley 9/3/26 0040 58.9   2.3 35   6 31.4   2.4 4.0   12.5 SE | 144 5.3   19.4 SE | 138 0.00 3.2   0.1 74.1   5.6 0.00 53.1   8.0 73.9   8.5 29.6   12.4
Spanish Springs 9/3/26 0040 58.7   1.7 40   8 34.6   7.1 8.5   5.6 W | 266 17.8   11.3 W | 259 0.00 10.4   0.3 76.0   5.2 0.00 52.5   0.8 68.6   10.2 28.1   3.5
Suttcliffe South 2 9/3/26 0040 60.1   1.9 35   2 32.6   3.3 11.8   8.7 WSW | 241 19.0   12.2 W | 261 0.00 4.2   0.2 72.5   4.9 0.00 47.7   10.2 71.6   9.5 31.0   12.8
Lemmon Valley North 9/3/26 0040 53.3   2.6 48   1 33.9   2.8 3.7   4.5 SSE | 165 7.0   6.0 SSE | 168 0.00 2.1   0.1 71.0   3.1 0.00 45.8   4.4 66.0   8.1 33.9   0.8
Lemmon Valley NW 3 9/3/26 0040 54.0   0.0 44   8 32.7   5.0 5.2   4.7 NNE | 17 7.6   13.5 NE | 36 0.00 1.3   0.1 73.9   3.9 0.00 49.8   2.7 67.6   7.4 26.1   7.2
VC Highlands North 9/3/26 0040 51.8   1.1 47   1 32.3   1.6 5.1   3.4 SW | 214 8.6   0.0 SSW | 204 0.00 4.5   0.3 63.4   5.7 0.00 42.9   6.6 59.5   11.4 26.8   1.4
Upper Voltaire Cyn 9/3/26 0040 55.5   2.5 30   1 24.8   1.1 11.0   0.5 S | 189 21.0   4.8 S | 171 0.00 1.2   0.1 71.0   4.1 0.00 49.4   3.3 64.2   7.0 33.3   0.5
Yerington NW 9/3/26 0040 56.8   4.0 36   11 30.0   5.4 1.6   13.2 NNE | 29 3.8   21.7 NNE | 20 0.00 7.2   0.2 73.8   3.9 0.00 55.0   2.5 71.9   7.5 32.0   7.7
Spanish Springs SW 9/3/26 0040 57.6   2.8 41   6 33.9   6.2 12.9   10.8 SW | 234 24.6   19.0 SW | 232 0.00 1.4   0.1 75.0   4.4 0.00 52.8   1.5 68.4   9.1 30.9   0.5
Cosgrave 2 8/27/26 0750 62.9   4.1 34   3 33.8   1.4 2.6   0.5 WSW | 246 4.1   1.0 W | 267 0.00 3.8   0.1 77.4   2.9 0.00 62.7   3.3 77.4   3.5 11.2   3.9
Winnemucca-Grass Valley 2 9/3/26 0040 50.0   12.8 56   40 35.1   18.1 5.2   1.9 SE | 137 6.7   6.6 SE | 132 0.00 7.7   0.4 65.7   4.3 0.00 43.4   8.4 67.9   12.6 28.3   5.0
Winnemucca-Dutch Flat Rd 9/3/26 0040 53.9   8.8 45   30 33.3   18.7 5.5   7.6 SSW | 194 7.2   17.3 S | 187 0.00 6.2   0.0 73.9   3.0 0.00 52.4   7.6 68.1   12.3 30.8   0.5
Paradise Valley 2 9/3/26 0040 53.8   2.5 44   18 32.5   10.4 5.6   1.8 SE | 139 8.6   2.6 ESE | 121 0.00 12.8   0.3 73.1   3.5 0.00 51.6   1.3 68.7   12.3 26.0   5.6
Golconda 2 9/3/26 0040 56.0   8.8 37   22 30.3   14.3 2.0   6.1 SE | 146 3.7   14.8 SE | 144 0.00 1.9   0.2 73.1   6.4 0.00 51.0   9.4 68.2   14.9 37.3   0.6
Battle Mountain - South 9/3/26 0040 55.0   7.8 33   13 26.4   5.7 1.4   1.6 WNW | 289 2.6   1.5 W | 263 0.00 9.1   0.0 74.2   3.2 0.00 42.4   15.5 70.3   13.4 27.6   0.7
Geiger Summit 9/3/26 0040 48.4   1.3 100   0 48.4   1.3 5.9   1.2 S | 191 12.2   2.6 S | 184 0.00 6.2   0.1 60.8   4.6 0.00 42.7   2.8 57.6   9.7 20.5   6.1
Combs Canyon 3 9/3/26 0040 58.1   0.3 33   8 29.2   6.5 6.5   2.3 WSW | 238 10.3   6.0 WSW | 239 0.00 1.0   0.0 74.4   2.4 0.00 52.2   4.3 67.9   8.0 30.7   1.1
Clear Creek 9/3/26 0040 55.1   0.2 35   9 27.8   6.9 5.9   2.8 S | 191 15.3   13.2 SE | 143 0.00 3.5   0.0 72.1   1.3 0.00 50.0   3.8 64.5   6.7 38.8   5.2
Eastlake 2 9/3/26 0040 55.8   0.0 39   8 31.1   5.7 1.8   3.0 WSW | 248 4.8   3.5 SE | 127 0.00 3.4   0.1 73.6   1.1 0.00 52.5   2.4 66.8   7.5 28.6   7.0
Lovelock-Colado 2 9/3/26 0040 60.1   4.2 29   3 27.6   6.3 5.9   0.8 SSW | 204 8.2   0.4 SW | 216 0.00 - 75.0   4.9 0.00 45.6   8.7 71.5   10.9 28.9   7.1
Spanish Springs NW 9/3/26 0040 58.3   0.4 38   9 32.9   6.9 6.0   0.1 SW | 218 11.4   1.9 S | 188 0.00 12.4   0.3 69.5   2.9 0.00 53.2   2.7 70.1   7.9 23.8   7.0
Battle Mountain NW 9/3/26 0040 58.5   6.3 32   15 28.8   9.5 2.3   3.0 SE | 127 4.6   8.8 SE | 126 0.00 8.8   0.3 75.5   4.7 0.00 48.8   12.2 69.2   14.5 28.6   0.4
Austin 2 9/2/26 2340 47.2   0.2 37   4 22.1   2.5 1.5   4.9 ESE | 121 4.2   4.3 NE | 47 0.00 2.3   0.0 63.0   2.8 0.00 37.3   10.0 68.5   5.6 26.4   7.0
Elko-Osino 9/3/26 0040 56.3   4.3 30   10 25.6   6.2 2.3   1.0 WSW | 242 3.6   1.6 SW | 218 0.00 1.4   0.0 75.7   2.7 0.00 51.9   4.6 71.3   11.2 28.1   5.5
Elko-Bill Fishpond 2 9/3/26 0040 55.1   6.1 30   10 23.9   4.1 1.9   6.0 ESE | 118 3.1   9.9 SE | 131 0.00 3.5   0.0 67.9   1.5 0.00 52.2   5.8 69.8   10.0 20.4   8.9
Spring Creek SE 2 9/3/26 0040 55.6   9.8 28   13 23.0   6.3 3.7   9.8 SE | 142 4.8   14.0 SE | 146 0.00 0.3   0.0 69.2   2.5 0.00 48.2   0.6 70.7   9.3 29.1   7.0
Spring Creek NW 9/3/26 0040 57.0   4.5 28   9 24.0   5.8 3.3   5.8 W | 270 4.5   9.3 W | 268 0.00 2.2   0.0 71.8   2.3 0.00 52.9   0.9 70.2   9.9 22.7   14.4
Elko-Moleen 9/3/26 0040 53.6   10.8 35   16 26.9   4.7 1.2   7.5 E | 81 4.6   8.9 ESE | 107 0.00 6.4   0.1 76.7   3.8 0.00 51.8   4.0 71.4   12.3 26.4   11.2
Elko-West 9/3/26 0040 56.0   7.4 28   10 23.4   4.4 1.1   3.7 WSW | 242 3.4   4.0 WSW | 241 0.00 33.2   0.7 66.8   1.2 0.00 51.5   0.9 71.4   11.5 24.1   10.9
Elko-Adobe Creek 9/3/26 0040 52.6   6.6 32   10 23.6   2.8 4.8   0.5 SSW | 195 5.6   1.4 SSW | 195 0.00 18.5   0.2 68.4   2.1 0.00 45.6   12.3 62.8   13.1 31.2   5.0
Tuscarora SW 9/3/26 0040 51.9   1.7 34   5 24.3   2.2 0.5   2.2 S | 184 3.4   5.5 S | 191 0.00 6.9   0.2 72.0   5.0 0.00 42.8   6.0 64.5   15.0 28.2   7.5
Elko-Monument Peak 9/3/26 0040 51.6   4.1 32   6 22.7   1.8 3.4   1.3 ESE | 119 4.3   3.0 ESE | 111 0.00 3.8   0.1 69.3   3.1 0.00 37.3   13.9 65.8   12.3 27.0   6.7
Wild Horse 9/3/26 0040 51.7 39 27.3 6.4 SSE | 147 9.8 SE | 142 0.00 4.6 66.1 0.00 46.8 62.1 34.3
Max     89.8 100 48.4 38.1 - 50.0 - 0.00 43.1 100.8 0.00 80.5 103.3 51.7
Avg     57.8 38 29.6 6.4 - 11.3 - 0.00 7.0 72.1 - - - -
Min     41.8 9 7.1 0.1 - 1.4 - 0.00 0.0 0.0 0.00 37.3 48.5 1.7